createdAt,value
2023-06-29T00:01:41.345Z,43.15
2023-06-29T00:04:49.890Z,44.06
2023-06-29T00:11:17.214Z,47.13
2023-06-29T00:14:21.391Z,44.73
2023-06-29T00:17:25.436Z,45.08
2023-06-29T00:20:29.925Z,46.26
2023-06-29T00:23:35.782Z,45.40
2023-06-29T00:26:40.420Z,45.44
2023-06-29T00:29:44.577Z,46.21
2023-06-29T00:32:53.140Z,47.48
2023-06-29T00:35:57.606Z,48.69
2023-06-29T00:39:02.809Z,49.02
2023-06-29T00:42:08.147Z,48.88
2023-06-29T00:45:12.207Z,49.75
2023-06-29T00:48:17.420Z,49.28
2023-06-29T00:51:24.055Z,49.34
2023-06-29T00:54:28.272Z,49.01
2023-06-29T00:57:34.457Z,48.99
2023-06-29T01:00:38.265Z,50.17
2023-06-29T01:03:42.938Z,49.57
2023-06-29T01:06:48.570Z,49.61
2023-06-29T01:09:52.851Z,49.62
2023-06-29T01:12:57.179Z,49.21
2023-06-29T01:16:01.628Z,48.95
2023-06-29T01:19:11.219Z,47.76
2023-06-29T01:22:15.548Z,48.68
2023-06-29T01:28:41.823Z,49.45
2023-06-29T01:31:46.047Z,48.66
2023-06-29T01:34:50.390Z,49.42
2023-06-29T01:37:54.358Z,50.44
2023-06-29T01:40:58.529Z,49.83
2023-06-29T01:44:02.529Z,50.34
2023-06-29T01:47:09.857Z,50.21
2023-06-29T01:50:17.984Z,51.59
2023-06-29T01:53:22.607Z,52.00
2023-06-29T01:56:26.597Z,52.96
2023-06-29T02:02:52.837Z,54.10
2023-06-29T02:05:56.849Z,53.26
2023-06-29T02:09:00.988Z,53.93
2023-06-29T02:12:05.414Z,55.37
2023-06-29T02:15:09.391Z,54.50
2023-06-29T02:18:13.144Z,51.66
2023-06-29T02:21:17.134Z,51.92
2023-06-29T02:24:21.049Z,52.86
2023-06-29T02:27:26.396Z,53.90
2023-06-29T02:30:30.727Z,53.99
2023-06-29T02:33:36.079Z,54.47
2023-06-29T02:36:41.992Z,55.26
2023-06-29T02:39:47.593Z,54.72
2023-06-29T02:42:58.687Z,52.48
2023-06-29T02:46:03.969Z,54.36
2023-06-29T02:49:14.022Z,54.57
2023-06-29T02:52:18.399Z,55.45
2023-06-29T02:55:23.897Z,54.89
2023-06-29T02:58:28.371Z,54.15
2023-06-29T03:01:32.503Z,52.68
2023-06-29T03:04:37.577Z,50.28
2023-06-29T03:07:41.774Z,49.54
2023-06-29T03:10:45.926Z,48.75
2023-06-29T03:13:51.513Z,50.12
2023-06-29T03:16:55.709Z,49.69
2023-06-29T03:20:00.071Z,50.13
2023-06-29T03:23:07.568Z,49.88
2023-06-29T03:26:13.086Z,49.99
2023-06-29T03:29:17.459Z,50.31
2023-06-29T03:32:22.663Z,49.52
2023-06-29T03:35:28.573Z,48.80
2023-06-29T03:38:34.336Z,48.68
2023-06-29T03:41:39.922Z,49.05
2023-06-29T03:44:47.098Z,48.91
2023-06-29T03:54:34.999Z,51.10
2023-06-29T03:57:39.050Z,52.49
2023-06-29T04:00:43.232Z,53.65
2023-06-29T04:03:49.279Z,52.32
2023-06-29T04:10:15.526Z,54.24
2023-06-29T04:13:20.551Z,53.95
2023-06-29T04:16:26.508Z,52.38
2023-06-29T04:19:32.409Z,53.09
2023-06-29T04:22:37.985Z,52.79
2023-06-29T04:25:42.522Z,52.83
2023-06-29T04:28:46.776Z,52.05
2023-06-29T04:31:51.309Z,52.04
2023-06-29T04:38:20.077Z,52.73
2023-06-29T04:41:25.125Z,52.65
2023-06-29T04:44:29.151Z,53.40
2023-06-29T04:47:33.517Z,52.74
2023-06-29T04:53:59.436Z,52.83
2023-06-29T04:57:04.148Z,53.92
2023-06-29T05:00:12.528Z,54.38
2023-06-29T05:03:16.622Z,53.96
2023-06-29T05:06:25.393Z,54.57
2023-06-29T05:16:21.280Z,52.48
2023-06-29T05:19:25.350Z,53.50
2023-06-29T05:22:29.988Z,53.04
2023-06-29T05:25:34.443Z,53.88
2023-06-29T05:28:38.409Z,53.31
2023-06-29T05:31:42.599Z,53.08
2023-06-29T05:34:46.732Z,52.82
2023-06-29T05:37:52.190Z,51.66
2023-06-29T05:40:56.055Z,52.08
2023-06-29T05:44:00.127Z,50.19
2023-06-29T05:47:03.857Z,49.74
2023-06-29T05:50:09.312Z,49.62
2023-06-29T05:53:13.504Z,49.52
2023-06-29T05:56:18.242Z,49.04
2023-06-29T05:59:36.309Z,48.28
2023-06-29T06:02:42.823Z,47.03
2023-06-29T06:05:46.900Z,44.38
2023-06-29T06:08:52.553Z,42.87
2023-06-29T06:11:56.620Z,42.57
2023-06-29T06:15:00.299Z,43.36
2023-06-29T06:21:33.330Z,45.23
2023-06-29T06:24:37.273Z,44.68
2023-06-29T06:27:41.628Z,46.30
2023-06-29T06:30:45.879Z,44.78
2023-06-29T06:33:51.175Z,44.75
2023-06-29T06:36:55.175Z,45.44
2023-06-29T06:39:59.340Z,44.03
2023-06-29T06:43:03.133Z,44.97
2023-06-29T06:46:06.980Z,44.58
2023-06-29T06:49:10.958Z,44.97
2023-06-29T06:52:18.909Z,43.12
2023-06-29T06:55:23.106Z,47.00
2023-06-29T06:58:29.166Z,43.01
2023-06-29T07:01:33.257Z,43.34
2023-06-29T07:04:37.652Z,43.90
2023-06-29T07:07:43.631Z,41.78
2023-06-29T07:10:47.566Z,42.37
2023-06-29T07:14:02.465Z,43.14
2023-06-29T07:17:06.812Z,44.16
2023-06-29T07:26:27.109Z,47.59
2023-06-29T07:29:30.909Z,47.83
2023-06-29T07:32:37.019Z,46.32
2023-06-29T07:35:41.170Z,44.87
2023-06-29T07:42:03.559Z,46.88
2023-06-29T07:45:14.864Z,46.27
2023-06-29T07:48:19.351Z,46.21
2023-06-29T07:51:23.797Z,45.39
2023-06-29T07:54:27.728Z,45.86
2023-06-29T08:00:42.506Z,51.01
2023-06-29T08:04:01.469Z,49.74
2023-06-29T08:10:25.275Z,48.02
2023-06-29T08:13:29.272Z,47.26
2023-06-29T08:16:33.776Z,48.58
2023-06-29T08:19:40.220Z,47.66
2023-06-29T08:22:46.873Z,47.99
2023-06-29T08:25:52.162Z,48.21
2023-06-29T08:28:57.547Z,47.79
2023-06-29T08:32:03.680Z,47.91
2023-06-29T08:35:12.741Z,47.18
2023-06-29T08:38:17.891Z,49.38
2023-06-29T08:41:22.344Z,50.34
2023-06-29T08:44:32.308Z,49.55
2023-06-29T08:54:37.301Z,48.62
2023-06-29T09:04:37.189Z,48.01
2023-06-29T09:07:46.631Z,47.75
2023-06-29T09:10:55.488Z,48.16
2023-06-29T09:13:59.760Z,44.37
2023-06-29T09:17:04.162Z,43.06
2023-06-29T09:20:08.893Z,44.68
2023-06-29T09:23:13.002Z,40.68
2023-06-29T09:26:16.895Z,42.62
2023-06-29T09:29:20.819Z,46.04
2023-06-29T09:32:24.929Z,45.68
2023-06-29T09:35:32.680Z,41.74
2023-06-29T09:38:36.712Z,42.77
2023-06-29T09:41:40.991Z,41.41
2023-06-29T09:44:50.125Z,43.53
2023-06-29T09:51:03.229Z,43.37
2023-06-29T09:54:07.721Z,41.18
2023-06-29T09:57:11.482Z,39.83
2023-06-29T10:00:15.581Z,41.70
2023-06-29T10:03:19.320Z,41.05
2023-06-29T10:06:23.236Z,40.41
2023-06-29T10:09:36.154Z,41.48
2023-06-29T10:12:40.095Z,40.40
2023-06-29T10:15:46.766Z,40.69
2023-06-29T10:18:50.980Z,40.89
2023-06-29T10:21:55.325Z,42.00
2023-06-29T10:24:59.232Z,41.46
2023-06-29T10:28:03.110Z,40.92
2023-06-29T10:31:08.481Z,42.30
2023-06-29T10:34:28.500Z,42.01
2023-06-29T10:37:32.532Z,40.80
2023-06-29T10:40:41.534Z,41.30
2023-06-29T10:43:46.065Z,41.34
2023-06-29T10:46:53.324Z,41.93
2023-06-29T10:49:58.725Z,40.65
2023-06-29T10:53:03.202Z,39.21
2023-06-29T10:59:29.178Z,38.89
2023-06-29T11:02:33.552Z,39.21
2023-06-29T11:05:38.180Z,42.17
2023-06-29T11:08:49.374Z,40.35
2023-06-29T11:12:15.921Z,40.08
2023-06-29T11:15:21.540Z,37.95
2023-06-29T11:18:28.906Z,37.67
2023-06-29T11:24:41.174Z,41.13
2023-06-29T11:27:45.339Z,39.52
2023-06-29T11:30:52.259Z,40.35
2023-06-29T11:33:59.581Z,37.74
2023-06-29T11:40:13.525Z,37.89
2023-06-29T11:43:17.880Z,35.63
2023-06-29T11:46:24.615Z,36.37
2023-06-29T11:49:28.934Z,36.91
2023-06-29T11:52:32.917Z,38.35
2023-06-29T11:55:37.426Z,38.82
2023-06-29T11:58:41.318Z,37.62
2023-06-29T12:01:45.707Z,36.34
2023-06-29T12:04:50.016Z,37.86
2023-06-29T12:07:54.686Z,37.14
2023-06-29T12:10:59.946Z,38.66
2023-06-29T12:14:04.023Z,38.57
2023-06-29T12:20:19.814Z,38.61
2023-06-29T12:23:23.955Z,36.65
2023-06-29T12:26:28.051Z,37.73
2023-06-29T12:29:32.048Z,35.62
2023-06-29T12:32:36.470Z,36.21
2023-06-29T12:35:43.368Z,35.83
2023-06-29T12:38:47.260Z,36.15
2023-06-29T12:41:51.359Z,35.98
2023-06-29T12:44:55.361Z,35.18
2023-06-29T12:47:59.316Z,37.34
2023-06-29T12:51:03.235Z,37.72
2023-06-29T12:54:07.268Z,37.69
2023-06-29T12:57:11.094Z,37.28
2023-06-29T13:00:15.484Z,34.66
2023-06-29T13:03:25.604Z,34.68
2023-06-29T13:06:29.981Z,37.59
2023-06-29T13:09:34.220Z,37.99
2023-06-29T13:12:38.368Z,36.03
2023-06-29T13:15:42.350Z,36.63
2023-06-29T13:18:46.238Z,35.84
2023-06-29T13:21:54.333Z,36.25
2023-06-29T13:24:58.468Z,34.14
2023-06-29T13:28:04.692Z,36.98
2023-06-29T13:31:08.571Z,35.55
2023-06-29T13:34:12.671Z,35.23
2023-06-29T13:37:16.618Z,35.34
2023-06-29T13:40:20.599Z,35.57
2023-06-29T13:43:24.609Z,36.09
2023-06-29T13:46:28.567Z,35.92
2023-06-29T13:49:32.548Z,36.07
2023-06-29T13:52:36.335Z,33.84
2023-06-29T13:55:40.547Z,34.45
2023-06-29T13:58:44.357Z,35.21
2023-06-29T14:01:48.191Z,35.00
2023-06-29T14:04:52.682Z,33.50
2023-06-29T14:07:57.173Z,33.67
2023-06-29T14:11:01.326Z,32.92
2023-06-29T14:14:05.650Z,30.67
2023-06-29T14:17:09.936Z,30.90
2023-06-29T14:20:16.623Z,31.13
2023-06-29T14:23:20.601Z,31.01
2023-06-29T14:26:24.525Z,32.18
2023-06-29T14:29:28.315Z,31.67
2023-06-29T14:32:37.443Z,31.80
2023-06-29T14:35:41.622Z,32.22
2023-06-29T14:38:45.441Z,31.54
2023-06-29T14:41:49.456Z,30.06
2023-06-29T14:44:53.647Z,29.06
2023-06-29T14:47:57.597Z,31.05
2023-06-29T14:51:02.110Z,31.35
2023-06-29T14:54:06.202Z,31.13
2023-06-29T14:57:09.980Z,31.50
2023-06-29T15:00:13.950Z,30.31
2023-06-29T15:06:39.753Z,31.62
2023-06-29T15:09:46.960Z,29.10
2023-06-29T15:12:51.216Z,31.53
2023-06-29T15:15:55.355Z,33.62
2023-06-29T15:19:00.558Z,34.49
2023-06-29T15:22:04.925Z,32.05
2023-06-29T15:25:09.834Z,32.53
2023-06-29T15:28:14.192Z,32.66
2023-06-29T15:31:20.473Z,34.42
2023-06-29T15:34:26.744Z,34.14
2023-06-29T15:37:30.942Z,33.51
2023-06-29T15:40:35.630Z,33.74
2023-06-29T15:43:40.169Z,33.04
2023-06-29T15:46:44.137Z,32.07
2023-06-29T15:49:48.132Z,31.30
2023-06-29T15:52:55.825Z,31.56
2023-06-29T15:55:59.754Z,31.23
2023-06-29T15:59:03.638Z,33.66
2023-06-29T16:02:08.021Z,33.05
2023-06-29T16:05:12.240Z,33.41
2023-06-29T16:08:16.378Z,35.51
2023-06-29T16:11:20.289Z,35.67
2023-06-29T16:14:23.874Z,37.35
2023-06-29T16:17:28.179Z,37.80
2023-06-29T16:20:32.454Z,38.06
2023-06-29T16:23:36.503Z,37.79
2023-06-29T16:26:40.906Z,38.00
2023-06-29T16:29:52.358Z,38.19
2023-06-29T16:32:56.474Z,36.60
2023-06-29T16:36:00.247Z,36.37
2023-06-29T16:39:04.086Z,36.06
2023-06-29T16:42:08.433Z,36.96
2023-06-29T16:45:12.286Z,37.22
2023-06-29T16:48:16.412Z,36.80
2023-06-29T16:51:25.382Z,37.49
2023-06-29T16:54:29.514Z,37.06
2023-06-29T16:57:34.683Z,38.45
2023-06-29T17:00:42.026Z,38.60
2023-06-29T17:03:47.575Z,39.13
2023-06-29T17:06:52.104Z,39.64
2023-06-29T17:09:56.554Z,40.44
2023-06-29T17:13:02.740Z,40.37
2023-06-29T17:22:55.215Z,39.25
2023-06-29T17:29:37.821Z,38.60
2023-06-29T17:32:47.720Z,38.84
2023-06-29T17:35:51.898Z,38.68
2023-06-29T17:38:59.924Z,38.70
2023-06-29T17:42:07.937Z,37.43
2023-06-29T17:48:35.551Z,38.02
2023-06-29T17:51:40.083Z,39.05
2023-06-29T17:54:47.054Z,38.53
2023-06-29T17:57:52.707Z,38.62
2023-06-29T18:00:56.753Z,39.87
2023-06-29T18:04:00.905Z,41.28
2023-06-29T18:07:05.768Z,41.02
2023-06-29T18:10:10.047Z,40.90
2023-06-29T18:13:18.205Z,41.77
2023-06-29T18:16:23.961Z,42.51
2023-06-29T18:19:28.277Z,43.20
2023-06-29T18:22:33.707Z,44.14
2023-06-29T18:25:37.500Z,46.18
2023-06-29T18:28:43.400Z,50.81
2023-06-29T18:31:48.234Z,50.41
2023-06-29T18:34:55.661Z,49.70
2023-06-29T18:37:59.939Z,48.51
2023-06-29T18:41:04.391Z,48.23
2023-06-29T18:44:08.361Z,48.75
2023-06-29T18:47:13.339Z,47.83
2023-06-29T18:50:17.859Z,46.30
2023-06-29T18:53:21.927Z,47.10
2023-06-29T18:56:26.030Z,46.06
2023-06-29T18:59:29.810Z,46.21
2023-06-29T19:02:35.168Z,45.64
2023-06-29T19:05:39.814Z,44.75
2023-06-29T19:08:45.395Z,44.83
2023-06-29T19:11:49.450Z,45.40
2023-06-29T19:14:53.421Z,45.23
2023-06-29T19:17:57.352Z,44.32
2023-06-29T19:21:04.162Z,44.34
2023-06-29T19:24:08.207Z,43.57
2023-06-29T19:27:13.020Z,43.46
2023-06-29T19:30:17.355Z,44.01
2023-06-29T19:33:21.745Z,44.59
2023-06-29T19:36:26.919Z,43.94
2023-06-29T19:42:58.627Z,44.43
2023-06-29T19:49:27.226Z,43.70
2023-06-29T19:52:37.371Z,43.77
2023-06-29T19:55:41.680Z,43.62
2023-06-29T20:05:33.682Z,44.37
2023-06-29T20:12:01.313Z,44.76
2023-06-29T20:21:17.005Z,45.61
2023-06-29T20:24:23.683Z,46.10
2023-06-29T20:30:50.239Z,45.84
2023-06-29T20:33:54.496Z,46.48
2023-06-29T20:36:59.797Z,45.76
2023-06-29T20:40:04.775Z,47.34
2023-06-29T20:43:08.966Z,48.43
2023-06-29T20:46:12.952Z,46.65
2023-06-29T20:49:17.003Z,45.66
2023-06-29T20:52:21.208Z,46.24
2023-06-29T20:55:25.774Z,45.66
2023-06-29T20:58:29.647Z,45.65
2023-06-29T21:01:35.284Z,44.22
2023-06-29T21:04:39.734Z,44.21
2023-06-29T21:07:45.107Z,43.87
2023-06-29T21:10:52.110Z,44.52
2023-06-29T21:13:56.653Z,45.84
2023-06-29T21:17:01.008Z,46.29
2023-06-29T21:20:08.242Z,46.87
2023-06-29T21:23:14.626Z,46.78
2023-06-29T21:26:18.844Z,47.09
2023-06-29T21:29:34.495Z,48.03
2023-06-29T21:32:45.364Z,48.96
2023-06-29T21:35:49.330Z,50.88
2023-06-29T21:38:53.231Z,53.52
2023-06-29T21:42:00.942Z,56.17
2023-06-29T21:45:05.148Z,57.43
2023-06-29T21:48:09.896Z,58.61
2023-06-29T21:51:15.744Z,57.48
2023-06-29T21:54:19.790Z,58.05
2023-06-29T21:57:24.198Z,57.15
2023-06-29T22:00:28.134Z,56.59
2023-06-29T22:03:33.320Z,57.27
2023-06-29T22:06:40.121Z,56.57
2023-06-29T22:09:44.381Z,56.48
2023-06-29T22:12:48.853Z,56.57
2023-06-29T22:15:53.439Z,56.32
2023-06-29T22:18:57.852Z,54.11
2023-06-29T22:22:05.902Z,55.19
2023-06-29T22:25:10.302Z,54.25
2023-06-29T22:28:14.671Z,55.00
2023-06-29T22:31:21.481Z,54.39
2023-06-29T22:34:29.264Z,55.51
2023-06-29T22:37:33.545Z,53.95
2023-06-29T22:40:38.108Z,53.58
2023-06-29T22:43:42.405Z,52.75
2023-06-29T22:46:46.689Z,51.66
2023-06-29T22:49:50.950Z,51.69
2023-06-29T22:52:55.666Z,51.32
2023-06-29T22:55:59.908Z,51.73
2023-06-29T22:59:03.961Z,52.50
2023-06-29T23:02:08.102Z,50.10
2023-06-29T23:05:14.343Z,50.73
2023-06-29T23:08:20.991Z,50.05
2023-06-29T23:14:32.735Z,51.94
2023-06-29T23:17:37.522Z,52.06
2023-06-29T23:20:46.065Z,53.74
2023-06-29T23:23:57.733Z,55.47
2023-06-29T23:27:06.336Z,56.24
2023-06-29T23:33:17.335Z,55.99
2023-06-29T23:36:22.040Z,57.14
2023-06-29T23:39:25.940Z,56.50
2023-06-29T23:42:29.949Z,58.27
2023-06-29T23:45:34.098Z,57.00
2023-06-29T23:52:13.706Z,57.45
2023-06-29T23:58:38.652Z,56.24
